Time;durP1;ratioP1;P1;durP2;ratioP2;P2;SDS_P1;SDS_P2;PMS_P1;PMS_P2;Temp;Humidity;BMP_temperature;BMP_pressure;BME280_temperature;BME280_humidity;BME280_pressure;Samples;Min_cycle;Max_cycle;Signal;HPM_P1;HPM_P2
2022/03/19 00:00:06;;;;;;;30.40;10.93;;;;;;;;;;5052842;28;20477;-86
2022/03/19 00:02:32;;;;;;;29.10;11.93;;;;;;;;;;5053274;28;20087;-85
2022/03/19 00:04:58;;;;;;;27.92;10.35;;;;;;;;;;5047772;28;20029;-84
2022/03/19 00:07:24;;;;;;;26.20;9.88;;;;;;;;;;5054253;28;20057;-85
2022/03/19 00:09:50;;;;;;;23.98;9.75;;;;;;;;;;5056727;28;20049;-84
2022/03/19 00:12:16;;;;;;;28.98;11.35;;;;;;;;;;5054005;28;20025;-83
2022/03/19 00:14:43;;;;;;;29.95;9.80;;;;;;;;;;5055753;28;20161;-85
2022/03/19 00:17:10;;;;;;;18.10;7.72;;;;;;;;;;5053421;28;20032;-85
2022/03/19 00:19:36;;;;;;;25.95;8.95;;;;;;;;;;5055924;28;20029;-86
2022/03/19 00:22:02;;;;;;;25.52;9.80;;;;;;;;;;5050871;28;20041;-85
2022/03/19 00:24:29;;;;;;;22.20;10.18;;;;;;;;;;5052501;28;20036;-83
2022/03/19 00:26:55;;;;;;;30.10;11.30;;;;;;;;;;5053028;28;20029;-84
2022/03/19 00:29:21;;;;;;;29.83;11.32;;;;;;;;;;5053306;28;20094;-83
2022/03/19 00:31:47;;;;;;;29.45;9.75;;;;;;;;;;5056722;28;20025;-86
2022/03/19 00:34:13;;;;;;;22.45;9.25;;;;;;;;;;5054875;28;20029;-86
2022/03/19 00:36:39;;;;;;;24.15;10.27;;;;;;;;;;5057397;28;20079;-85
2022/03/19 00:39:05;;;;;;;34.88;9.05;;;;;;;;;;5057672;28;20097;-85
2022/03/19 00:41:31;;;;;;;28.13;9.25;;;;;;;;;;5059055;28;20037;-84
2022/03/19 00:43:57;;;;;;;31.52;9.60;;;;;;;;;;5056346;28;20031;-85
2022/03/19 00:46:23;;;;;;;27.33;9.73;;;;;;;;;;5061513;28;20037;-83
2022/03/19 00:48:49;;;;;;;21.15;8.90;;;;;;;;;;5055455;28;20043;-86
2022/03/19 00:51:15;;;;;;;25.92;10.57;;;;;;;;;;5058597;28;20033;-86
2022/03/19 00:53:41;;;;;;;31.50;9.65;;;;;;;;;;5048255;28;20120;-84
2022/03/19 00:56:07;;;;;;;22.38;8.25;;;;;;;;;;5050693;28;20025;-85
2022/03/19 00:58:34;;;;;;;21.40;9.05;;;;;;;;;;5054081;28;20105;-85
2022/03/19 01:01:00;;;;;;;25.25;12.15;;;;;;;;;;5054558;28;20123;-84
2022/03/19 01:03:26;;;;;;;25.35;11.05;;;;;;;;;;5054166;28;20033;-87
2022/03/19 01:05:52;;;;;;;22.63;10.25;;;;;;;;;;5051665;28;20510;-87
2022/03/19 01:08:18;;;;;;;26.98;9.10;;;;;;;;;;5048898;28;20037;-85
2022/03/19 01:10:44;;;;;;;28.77;9.80;;;;;;;;;;5057714;28;20028;-86
2022/03/19 01:13:10;;;;;;;24.73;9.18;;;;;;;;;;5051106;28;20026;-85
2022/03/19 01:15:36;;;;;;;29.52;11.15;;;;;;;;;;5059580;28;20025;-85
2022/03/19 01:18:02;;;;;;;34.05;11.27;;;;;;;;;;5054656;28;20099;-85
2022/03/19 01:20:29;;;;;;;26.90;10.80;;;;;;;;;;5051919;28;20504;-86
2022/03/19 01:22:55;;;;;;;30.23;10.45;;;;;;;;;;5053301;28;20060;-86
2022/03/19 01:25:21;;;;;;;29.48;9.60;;;;;;;;;;5052723;28;20576;-85
2022/03/19 01:27:48;;;;;;;24.27;8.18;;;;;;;;;;5056437;28;20029;-85
2022/03/19 01:30:16;;;;;;;21.25;7.93;;;;;;;;;;5056798;28;20436;-86
2022/03/19 01:32:42;;;;;;;23.02;8.65;;;;;;;;;;5053258;28;20025;-84
2022/03/19 01:35:09;;;;;;;20.92;10.18;;;;;;;;;;5056302;28;20044;-85
2022/03/19 01:37:36;;;;;;;33.08;7.85;;;;;;;;;;5051251;28;20032;-86
2022/03/19 01:40:02;;;;;;;15.93;7.50;;;;;;;;;;5056952;28;20078;-86
2022/03/19 01:42:32;;;;;;;20.15;8.18;;;;;;;;;;5057739;28;20044;-88
2022/03/19 01:44:59;;;;;;;18.77;9.30;;;;;;;;;;5056075;28;20029;-85
2022/03/19 01:47:26;;;;;;;20.50;8.00;;;;;;;;;;5052181;28;20059;-87
2022/03/19 01:49:52;;;;;;;26.85;8.90;;;;;;;;;;5053915;28;20032;-85
2022/03/19 01:52:18;;;;;;;15.98;7.53;;;;;;;;;;5060716;28;20055;-85
2022/03/19 01:54:45;;;;;;;23.05;8.43;;;;;;;;;;5058266;28;20496;-85
2022/03/19 01:57:14;;;;;;;24.85;10.18;;;;;;;;;;5054128;28;22194;-86
2022/03/19 01:59:41;;;;;;;18.63;7.32;;;;;;;;;;5055630;28;20396;-84
2022/03/19 02:02:10;;;;;;;25.33;9.88;;;;;;;;;;5058422;28;20056;-85
2022/03/19 02:04:36;;;;;;;22.60;8.98;;;;;;;;;;5055914;28;20033;-86
2022/03/19 02:07:03;;;;;;;19.60;9.48;;;;;;;;;;5056080;28;20036;-84
2022/03/19 02:09:29;;;;;;;31.10;10.52;;;;;;;;;;5062484;28;20041;-84
2022/03/19 02:11:55;;;;;;;30.63;10.45;;;;;;;;;;5053665;28;20029;-85
2022/03/19 02:14:21;;;;;;;24.98;10.10;;;;;;;;;;5049914;28;20537;-84
2022/03/19 02:16:47;;;;;;;23.10;8.55;;;;;;;;;;5050134;28;20031;-84
2022/03/19 02:19:13;;;;;;;19.63;7.93;;;;;;;;;;5052421;28;20111;-86
2022/03/19 02:21:58;;;;;;;24.85;8.40;;;;;;;;;;5050851;28;20059;-85
2022/03/19 02:27:09;;;;;;;23.83;8.57;;;;;;;;;;5054125;28;20052;-86
2022/03/19 02:29:35;;;;;;;20.73;8.52;;;;;;;;;;5052784;28;20036;-85
2022/03/19 02:32:04;;;;;;;23.23;8.75;;;2.60;99.90;;;;;;5053337;28;20024;-85
2022/03/19 02:34:33;;;;;;;27.63;9.80;;;;;;;;;;5055175;28;20050;-86
2022/03/19 02:36:59;;;;;;;26.35;10.07;;;;;;;;;;5053610;28;20525;-85
2022/03/19 02:39:28;;;;;;;18.23;7.90;;;;;;;;;;5052123;28;20029;-87
2022/03/19 02:41:55;;;;;;;24.08;9.38;;;;;;;;;;5058172;28;20033;-86
2022/03/19 02:44:21;;;;;;;19.63;8.38;;;;;;;;;;5051428;28;20057;-87
2022/03/19 02:46:51;;;;;;;25.13;9.07;;;;;;;;;;5050263;28;20033;-86
2022/03/19 02:49:18;;;;;;;15.35;7.60;;;;;;;;;;5051754;28;20049;-86
2022/03/19 02:51:48;;;;;;;24.55;8.57;;;;;;;;;;5049504;28;20028;-87
2022/03/19 02:54:16;;;;;;;17.88;7.13;;;;;;;;;;5055862;28;20090;-87
2022/03/19 02:56:43;;;;;;;18.45;8.52;;;;;;;;;;5057279;28;20088;-87
2022/03/19 02:59:11;;;;;;;18.98;7.47;;;;;;;;;;5046997;28;20096;-87
2022/03/19 03:01:37;;;;;;;18.23;7.20;;;;;;;;;;5054071;28;20048;-88
2022/03/19 03:04:03;;;;;;;21.85;8.88;;;;;;;;;;5052080;28;20036;-85
2022/03/19 03:06:29;;;;;;;27.55;8.43;;;;;;;;;;5050204;28;20781;-86
2022/03/19 03:08:56;;;;;;;15.15;6.82;;;;;;;;;;5048332;28;20052;-85
2022/03/19 03:11:22;;;;;;;16.80;7.57;;;;;;;;;;5054779;28;20080;-87
2022/03/19 03:13:48;;;;;;;30.13;8.30;;;;;;;;;;5047714;28;20025;-85
2022/03/19 03:16:14;;;;;;;17.83;8.07;;;;;;;;;;5053944;28;20079;-86
2022/03/19 03:18:40;;;;;;;26.90;8.30;;;;;;;;;;5054730;28;20021;-87
2022/03/19 03:21:06;;;;;;;17.23;7.55;;;;;;;;;;5051358;28;20021;-86
2022/03/19 03:23:32;;;;;;;22.42;10.05;;;;;;;;;;5053265;28;20480;-87
2022/03/19 03:25:58;;;;;;;22.75;8.25;;;;;;;;;;5054970;28;20029;-86
2022/03/19 03:28:24;;;;;;;20.58;8.90;;;;;;;;;;5054009;28;20025;-87
2022/03/19 03:30:50;;;;;;;19.10;7.22;;;;;;;;;;5053006;28;20029;-86
2022/03/19 03:33:16;;;;;;;22.10;8.35;;;;;;;;;;5058626;28;20025;-87
2022/03/19 03:35:42;;;;;;;20.35;8.50;;;;;;;;;;5051150;28;20025;-85
2022/03/19 03:38:08;;;;;;;26.58;9.30;;;;;;;;;;5052717;28;20035;-86
2022/03/19 03:40:34;;;;;;;26.10;10.07;;;;;;;;;;5049181;28;20083;-87
2022/03/19 03:43:00;;;;;;;16.88;8.20;;;;;;;;;;5050884;28;20033;-87
2022/03/19 03:45:29;;;;;;;16.08;6.30;;;;;;;;;;5052481;28;20017;-87
2022/03/19 03:47:55;;;;;;;19.65;8.98;;;;;;;;;;5057594;28;20457;-87
2022/03/19 03:50:21;;;;;;;23.10;8.30;;;;;;;;;;5050816;28;20088;-88
2022/03/19 03:52:48;;;;;;;29.75;8.38;;;;;;;;;;5049931;28;20023;-87
2022/03/19 03:55:15;;;;;;;22.80;8.88;;;;;;;;;;5053730;28;20026;-85
2022/03/19 03:57:41;;;;;;;21.48;7.70;;;;;;;;;;5050151;28;20055;-88
2022/03/19 04:00:11;;;;;;;20.73;8.00;;;;;;;;;;5056321;28;20024;-86
2022/03/19 04:02:37;;;;;;;26.40;7.82;;;;;;;;;;5048754;28;20059;-84
2022/03/19 04:05:04;;;;;;;22.23;7.35;;;;;;;;;;5050496;28;20037;-86
2022/03/19 04:07:30;;;;;;;22.95;9.88;;;;;;;;;;5049269;28;20116;-88
2022/03/19 04:09:56;;;;;;;18.95;6.07;;;;;;;;;;5057901;28;20114;-86
2022/03/19 04:12:22;;;;;;;17.23;7.32;;;;;;;;;;5055172;28;20021;-88
2022/03/19 04:14:49;;;;;;;18.25;7.97;;;;;;;;;;5051458;28;20369;-86
2022/03/19 04:17:15;;;;;;;18.77;8.18;;;;;;;;;;5056606;28;20025;-87
2022/03/19 04:19:41;;;;;;;14.93;6.22;;;;;;;;;;5052243;28;20029;-88
2022/03/19 04:22:07;;;;;;;15.80;7.40;;;;;;;;;;5058703;28;20064;-85
2022/03/19 04:24:34;;;;;;;23.73;9.90;;;;;;;;;;5062284;28;20033;-87
2022/03/19 04:27:00;;;;;;;22.88;7.90;;;;;;;;;;5056595;28;20040;-87
2022/03/19 04:29:26;;;;;;;20.58;9.38;;;;;;;;;;5050358;28;20045;-86
2022/03/19 04:31:52;;;;;;;20.35;7.18;;;;;;;;;;5054883;28;20122;-86
2022/03/19 04:34:18;;;;;;;32.45;9.00;;;;;;;;;;5059199;28;20037;-85
2022/03/19 04:36:44;;;;;;;16.17;6.28;;;;;;;;;;5055380;28;20033;-86
2022/03/19 04:39:11;;;;;;;21.58;7.18;;;;;;;;;;5059076;28;20029;-89
2022/03/19 04:41:37;;;;;;;19.45;8.93;;;;;;;;;;5057041;28;20029;-85
2022/03/19 04:44:04;;;;;;;17.77;8.00;;;;;;;;;;5054958;28;20029;-85
2022/03/19 04:46:30;;;;;;;14.52;6.47;;;;;;;;;;5048003;28;20134;-85
2022/03/19 04:48:56;;;;;;;25.13;8.40;;;;;;;;;;5056088;28;20109;-88
2022/03/19 04:51:25;;;;;;;27.35;9.20;;;;;;;;;;5049164;28;20561;-86
2022/03/19 04:53:51;;;;;;;23.33;7.53;;;;;;;;;;5049734;28;20048;-87
2022/03/19 04:56:21;;;;;;;22.00;8.48;;;;;;;;;;5056466;28;20028;-88
2022/03/19 04:58:48;;;;;;;24.40;10.23;;;;;;;;;;5048057;28;20048;-88
2022/03/19 05:01:14;;;;;;;17.73;9.43;;;;;;;;;;5056112;28;20193;-88
2022/03/19 05:03:40;;;;;;;19.42;7.97;;;;;;;;;;5048396;28;20770;-86
2022/03/19 05:06:06;;;;;;;23.38;8.70;;;;;;;;;;5052860;28;20021;-87
2022/03/19 05:08:31;;;;;;;23.02;10.18;;;;;;;;;;5048763;28;20099;-89
2022/03/19 05:11:13;;;;;;;20.15;8.60;;;;;;;;;;5059686;28;20052;-87
2022/03/19 05:13:43;;;;;;;29.90;11.05;;;;;;;;;;5053798;28;20052;-86
2022/03/19 05:16:09;;;;;;;26.90;9.15;;;;;;;;;;5054502;28;20029;-87
2022/03/19 05:18:35;;;;;;;20.75;9.23;;;;;;;;;;5049931;28;20822;-87
2022/03/19 05:21:01;;;;;;;21.52;8.75;;;;;;;;;;5054983;28;20037;-85
2022/03/19 05:23:27;;;;;;;30.25;9.10;;;;;;;;;;5056545;28;20029;-87
2022/03/19 05:25:53;;;;;;;30.50;9.40;;;;;;;;;;5052098;28;20036;-87
2022/03/19 05:28:19;;;;;;;26.33;10.23;;;1.80;99.90;;;;;;5050581;28;20025;-87
2022/03/19 05:30:46;;;;;;;26.65;9.85;;;;;;;;;;5057158;28;20067;-89
2022/03/19 05:33:13;;;;;;;26.13;12.13;;;;;;;;;;5052593;28;20025;-86
2022/03/19 05:35:39;;;;;;;27.13;11.40;;;;;;;;;;5049721;28;20063;-89
2022/03/19 05:38:05;;;;;;;30.98;9.88;;;;;;;;;;5054241;28;20025;-86
2022/03/19 05:40:31;;;;;;;30.13;10.90;;;;;;;;;;5056535;28;20028;-85
2022/03/19 05:42:58;;;;;;;28.10;12.02;;;;;;;;;;5041201;28;20257;-86
2022/03/19 05:45:24;;;;;;;27.25;10.27;;;;;;;;;;5047062;28;20059;-87
2022/03/19 05:47:50;;;;;;;33.42;10.25;;;;;;;;;;5050047;28;20021;-87
2022/03/19 05:50:16;;;;;;;24.83;9.32;;;;;;;;;;5056664;28;20036;-88
2022/03/19 05:52:45;;;;;;;26.02;11.10;;;;;;;;;;5057783;28;20032;-85
2022/03/19 05:55:10;;;;;;;24.95;10.38;;;;;;;;;;5050714;28;20083;-88
2022/03/19 05:57:36;;;;;;;28.20;10.50;;;;;;;;;;5050566;28;20021;-84
2022/03/19 06:00:03;;;;;;;21.25;8.40;;;;;;;;;;5051224;28;20036;-86
2022/03/19 06:02:29;;;;;;;34.75;9.27;;;;;;;;;;5052831;28;20025;-86
2022/03/19 06:04:55;;;;;;;31.40;10.95;;;;;;;;;;5052662;28;20131;-86
2022/03/19 06:07:21;;;;;;;21.63;10.23;;;;;;;;;;5046430;28;20040;-86
2022/03/19 06:09:47;;;;;;;21.40;9.05;;;;;;;;;;5057697;28;20029;-87
2022/03/19 06:12:13;;;;;;;28.60;9.73;;;;;;;;;;5054028;28;20032;-88
2022/03/19 06:14:39;;;;;;;30.50;9.35;;;;;;;;;;5048313;28;20078;-87
2022/03/19 06:17:05;;;;;;;22.00;9.13;;;;;;;;;;5050044;28;21655;-86
2022/03/19 06:19:31;;;;;;;33.22;12.50;;;;;;;;;;5044222;28;20632;-88
2022/03/19 06:21:57;;;;;;;23.35;9.15;;;;;;;;;;5044995;28;20056;-91
2022/03/19 06:24:23;;;;;;;24.02;11.00;;;;;;;;;;5041597;28;20033;-87
2022/03/19 06:26:51;;;;;;;18.52;7.63;;;;;;;;;;5046004;28;20075;-89
2022/03/19 06:29:17;;;;;;;36.97;11.95;;;;;;;;;;5048560;28;20095;-90
2022/03/19 06:31:43;;;;;;;33.08;11.55;;;;;;;;;;5044580;28;20066;-91
2022/03/19 06:34:09;;;;;;;25.83;10.55;;;;;;;;;;5047737;28;20083;-91
2022/03/19 06:39:19;;;;;;;29.80;11.07;;;;;;;;;;5040109;28;20098;-87
2022/03/19 06:41:45;;;;;;;20.33;9.75;;;;;;;;;;5040290;28;20661;-87
2022/03/19 06:44:11;;;;;;;26.38;12.48;;;;;;;;;;5038010;28;20033;-86
2022/03/19 06:46:37;;;;;;;28.00;11.88;;;;;;;;;;5031242;28;20496;-89
2022/03/19 06:49:03;;;;;;;23.83;9.43;;;;;;;;;;5035799;28;20034;-85
2022/03/19 06:51:29;;;;;;;27.48;11.77;;;;;;;;;;5043876;28;20033;-86
2022/03/19 06:53:55;;;;;;;40.08;12.07;;;;;;;;;;5041358;28;20029;-86
2022/03/19 06:56:21;;;;;;;31.02;12.32;;;;;;;;;;5039783;28;20115;-85
2022/03/19 06:58:47;;;;;;;30.58;11.57;;;;;;;;;;5033532;28;20113;-86
2022/03/19 07:01:16;;;;;;;38.65;14.95;;;;;;;;;;5040628;28;20036;-87
2022/03/19 07:03:43;;;;;;;40.35;13.98;;;;;;;;;;5051361;28;20021;-85
2022/03/19 07:06:10;;;;;;;34.13;12.68;;;;;;;;;;5052537;28;20075;-89
2022/03/19 07:08:36;;;;;;;30.60;12.23;;;;;;;;;;5045267;28;20469;-90
2022/03/19 07:11:02;;;;;;;39.20;12.73;;;;;;;;;;5043786;28;20115;-87
2022/03/19 07:13:28;;;;;;;35.83;15.05;;;;;;;;;;5036845;28;20056;-87
2022/03/19 07:15:54;;;;;;;34.42;10.82;;;;;;;;;;5040453;28;20045;-87
2022/03/19 07:18:20;;;;;;;40.88;14.38;;;;;;;;;;5051235;28;20029;-87
2022/03/19 07:20:46;;;;;;;34.47;12.07;;;;;;;;;;5051905;28;20051;-85
2022/03/19 07:23:12;;;;;;;36.13;14.45;;;;;;;;;;5047115;28;20465;-87
2022/03/19 07:25:39;;;;;;;37.58;16.13;;;;;;;;;;5055337;28;20029;-88
2022/03/19 07:28:12;;;;;;;40.42;14.00;;;;;;;;;;5045909;28;20025;-89
2022/03/19 07:30:38;;;;;;;33.90;14.23;;;;;;;;;;5051695;28;20071;-86
2022/03/19 07:33:05;;;;;;;37.70;15.27;;;;;;;;;;5042925;28;20091;-85
2022/03/19 07:35:31;;;;;;;34.53;12.90;;;;;;;;;;5048879;28;20391;-84
2022/03/19 07:38:02;;;;;;;37.13;11.95;;;;;;;;;;5043522;28;20119;-82
2022/03/19 07:43:13;;;;;;;34.33;13.25;;;;;;;;;;5040689;28;20163;-81
2022/03/19 07:45:39;;;;;;;31.73;13.48;;;;;;;;;;5044282;28;20092;-83
2022/03/19 07:48:06;;;;;;;33.28;13.23;;;;;;;;;;5038706;28;20417;-85
2022/03/19 07:50:32;;;;;;;28.95;12.13;;;;;;;;;;5051550;28;20057;-83
2022/03/19 07:52:58;;;;;;;34.25;12.95;;;;;;;;;;5050520;28;20418;-83
2022/03/19 07:55:24;;;;;;;30.65;12.43;;;;;;;;;;5049901;28;20124;-82
2022/03/19 07:57:50;;;;;;;26.75;12.30;;;;;;;;;;5048275;28;20102;-83
2022/03/19 08:00:16;;;;;;;37.47;14.38;;;;;;;;;;5045894;28;20029;-84
2022/03/19 08:02:43;;;;;;;37.55;13.45;;;;;;;;;;5040956;28;20029;-83
2022/03/19 08:05:09;;;;;;;34.55;15.40;;;;;;;;;;5050024;28;20025;-83
2022/03/19 08:07:37;;;;;;;32.15;13.57;;;;;;;;;;5057098;28;20039;-82
2022/03/19 08:10:03;;;;;;;29.45;12.30;;;;;;;;;;5057572;28;20044;-83
2022/03/19 08:12:29;;;;;;;43.15;14.45;;;;;;;;;;5051458;28;20464;-84
2022/03/19 08:14:55;;;;;;;35.63;15.23;;;;;;;;;;5043486;28;20106;-86
2022/03/19 08:17:21;;;;;;;35.70;15.48;;;;;;;;;;5047490;28;20527;-83
2022/03/19 08:19:48;;;;;;;37.25;14.65;;;;;;;;;;5049359;28;20021;-83
2022/03/19 08:22:14;;;;;;;32.15;14.00;;;;;;;;;;5047551;28;20392;-84
2022/03/19 08:24:40;;;;;;;31.92;13.82;;;;;;;;;;5043105;28;20349;-86
2022/03/19 08:27:06;;;;;;;29.95;13.35;;;;;;;;;;5044745;28;20172;-80
2022/03/19 08:29:32;;;;;;;32.22;12.65;;;;;;;;;;5044709;28;20686;-86
2022/03/19 08:31:58;;;;;;;32.15;12.23;;;;;;;;;;5048223;28;20036;-82
2022/03/19 08:34:25;;;;;;;39.80;12.20;;;;;;;;;;5048688;28;20033;-83
2022/03/19 08:36:52;;;;;;;30.15;11.50;;;;;;;;;;5045690;28;20041;-82
2022/03/19 08:42:03;;;;;;;37.22;12.95;;;;;;;;;;5046890;28;21625;-83
2022/03/19 08:44:29;;;;;;;28.88;10.73;;;;;;;;;;5049854;28;20032;-83
2022/03/19 08:46:55;;;;;;;25.63;9.77;;;;;;;;;;5047116;28;20056;-85
2022/03/19 08:49:21;;;;;;;24.65;10.27;;;;;;;;;;5050039;28;20040;-84
2022/03/19 08:51:47;;;;;;;25.80;11.18;;;;;;;;;;5044913;28;20021;-84
2022/03/19 08:54:17;;;;;;;25.42;10.20;;;;;;;;;;5042808;28;20171;-86
2022/03/19 08:56:44;;;;;;;24.45;9.18;;;;;;;;;;5047784;28;20017;-83
2022/03/19 08:59:10;;;;;;;28.73;10.27;;;;;;;;;;5041578;28;20033;-83
2022/03/19 09:01:37;;;;;;;24.92;9.45;;;;;;;;;;5056370;28;20025;-83
2022/03/19 09:04:03;;;;;;;25.27;9.82;;;;;;;;;;5044506;28;20036;-83
2022/03/19 09:06:30;;;;;;;18.77;8.57;;;;;;;;;;5052241;28;20025;-84
2022/03/19 09:08:56;;;;;;;21.73;9.70;;;;;;;;;;5044455;28;20132;-84
2022/03/19 09:11:23;;;;;;;30.13;8.82;;;;;;;;;;5048279;28;20595;-85
2022/03/19 09:13:50;;;;;;;21.02;8.18;;;;;;;;;;5048607;28;20037;-84
2022/03/19 09:16:17;;;;;;;22.48;9.57;;;;;;;;;;5049207;28;20036;-84
2022/03/19 09:18:43;;;;;;;18.23;8.20;;;;;;;;;;5051772;28;20048;-84
2022/03/19 09:21:09;;;;;;;20.65;9.13;;;;;;;;;;5045436;28;20029;-84
2022/03/19 09:23:35;;;;;;;18.90;8.45;;;;;;;;;;5052501;28;20025;-84
2022/03/19 09:26:01;;;;;;;18.50;7.82;;;;;;;;;;5044020;28;20040;-84
2022/03/19 09:28:27;;;;;;;22.05;8.32;;;;;;;;;;5042012;28;20029;-86
2022/03/19 09:30:53;;;;;;;16.58;7.28;;;;;;;;;;5044373;28;20041;-83
2022/03/19 09:33:19;;;;;;;21.73;7.43;;;;;;;;;;5045563;28;22163;-84
2022/03/19 09:35:46;;;;;;;14.02;6.60;;;;;;;;;;5042671;28;20124;-85
2022/03/19 09:38:15;;;;;;;13.57;6.72;;;;;;;;;;5040265;28;20033;-85
2022/03/19 09:40:42;;;;;;;15.55;6.53;;;;;;;;;;5042337;28;20381;-86
2022/03/19 09:43:08;;;;;;;17.08;5.97;;;;;;;;;;5045689;28;20028;-82
2022/03/19 09:45:35;;;;;;;17.63;7.00;;;;;;;;;;5049080;28;20033;-83
2022/03/19 09:48:01;;;;;;;12.95;4.90;;;;;;;;;;5042006;28;20033;-88
2022/03/19 09:50:27;;;;;;;13.68;5.18;;;;;;;;;;5040899;28;20128;-86
2022/03/19 09:52:54;;;;;;;19.50;5.68;;;11.00;93.40;;;;;;5045955;28;20049;-82
2022/03/19 09:55:21;;;;;;;18.02;6.80;;;;;;;;;;5050290;28;20137;-85
2022/03/19 09:57:47;;;;;;;10.85;4.85;;;;;;;;;;5053436;28;20053;-84
2022/03/19 10:00:14;;;;;;;17.83;5.40;;;;;;;;;;5048286;28;20137;-84
2022/03/19 10:02:51;;;;;;;11.63;4.22;;;;;;;;;;5045432;28;20444;-86
2022/03/19 10:10:48;;;;;;;11.25;4.15;;;;;;;;;;5044647;28;20103;-82
2022/03/19 10:13:14;;;;;;;10.77;4.25;;;;;;;;;;5039480;28;20048;-84
2022/03/19 10:15:44;;;;;;;12.77;3.60;;;;;;;;;;5045929;28;20482;-84
2022/03/19 10:18:10;;;;;;;8.30;3.65;;;;;;;;;;5054131;28;21757;-85
2022/03/19 10:20:37;;;;;;;12.80;3.80;;;;;;;;;;5050395;28;20051;-84
2022/03/19 10:23:03;;;;;;;10.85;3.97;;;;;;;;;;5054565;28;20037;-87
2022/03/19 10:25:30;;;;;;;5.80;3.65;;;;;;;;;;5046511;28;20053;-83
2022/03/19 10:28:01;;;;;;;5.95;2.67;;;;;;;;;;5041340;28;20040;-82
2022/03/19 10:30:28;;;;;;;8.18;3.47;;;;;;;;;;5048822;28;20037;-84
2022/03/19 10:32:55;;;;;;;9.30;3.08;;;;;;;;;;5052298;28;20033;-86
2022/03/19 10:35:26;;;;;;;5.60;3.08;;;;;;;;;;5036474;28;20039;-81
2022/03/19 10:37:52;;;;;;;7.45;2.50;;;;;;;;;;5044061;28;20092;-82
2022/03/19 10:40:19;;;;;;;6.90;3.00;;;;;;;;;;5050108;28;20079;-82
2022/03/19 10:42:45;;;;;;;10.63;3.10;;;;;;;;;;5043954;28;20379;-82
2022/03/19 10:45:12;;;;;;;10.88;3.30;;;;;;;;;;5037516;28;20496;-81
2022/03/19 10:47:41;;;;;;;9.10;3.88;;;;;;;;;;5046423;28;20032;-82
2022/03/19 10:50:07;;;;;;;14.00;3.90;;;;;;;;;;5039762;28;20510;-83
2022/03/19 10:52:36;;;;;;;10.68;3.45;;;;;;;;;;5039971;28;20029;-83
2022/03/19 10:55:04;;;;;;;12.45;4.55;;;;;;;;;;5040058;28;20034;-82
2022/03/19 10:57:30;;;;;;;8.43;2.92;;;;;;;;;;5043791;28;20036;-82
2022/03/19 10:59:56;;;;;;;9.45;3.78;;;;;;;;;;5047078;28;20428;-81
2022/03/19 11:02:22;;;;;;;8.95;3.88;;;;;;;;;;5051568;28;20024;-80
2022/03/19 11:04:49;;;;;;;9.15;3.08;;;;;;;;;;5048009;28;20017;-80
2022/03/19 11:07:18;;;;;;;6.57;2.10;;;;;;;;;;5054149;28;20033;-80
2022/03/19 11:09:45;;;;;;;8.73;3.03;;;;;;;;;;5053338;28;20807;-80
2022/03/19 11:12:14;;;;;;;8.35;2.85;;;;;;;;;;5051799;28;20666;-81
2022/03/19 11:14:40;;;;;;;8.43;2.60;;;;;;;;;;5052511;28;20033;-81
2022/03/19 11:17:24;;;;;;;6.80;3.72;;;;;;;;;;5045246;28;20028;-82
2022/03/19 11:19:54;;;;;;;7.78;2.25;;;;;;;;;;5041351;28;20059;-82
2022/03/19 11:22:21;;;;;;;6.30;2.20;;;;;;;;;;5043503;28;20397;-80
2022/03/19 11:25:02;;;;;;;6.07;2.47;;;;;;;;;;5043233;28;20025;-80
2022/03/19 11:27:28;;;;;;;5.72;1.42;;;;;;;;;;5043808;28;20115;-80
2022/03/19 11:29:58;;;;;;;8.13;2.17;;;;;;;;;;5051277;28;20049;-80
2022/03/19 11:32:24;;;;;;;4.03;1.92;;;12.00;99.10;;;;;;5048752;28;20029;-78
2022/03/19 11:34:51;;;;;;;3.90;1.58;;;;;;;;;;5050595;28;20043;-80
2022/03/19 11:37:16;;;;;;;4.05;1.38;;;12.70;96.00;;;;;;5041459;28;20025;-80
2022/03/19 11:40:02;;;;;;;2.83;1.20;;;;;;;;;;5041278;28;20033;-83
2022/03/19 11:42:31;;;;;;;10.55;2.08;;;;;;;;;;5047977;28;20075;-82
2022/03/19 11:45:09;;;;;;;4.97;1.60;;;;;;;;;;5046539;28;20122;-82
2022/03/19 11:47:35;;;;;;;3.22;1.50;;;;;;;;;;5054061;28;20028;-80
2022/03/19 11:50:04;;;;;;;7.38;1.48;;;;;;;;;;5046954;28;20053;-86
2022/03/19 11:52:29;;;;;;;2.42;1.25;;;;;;;;;;5051280;28;20047;-81
2022/03/19 11:55:04;;;;;;;3.88;1.48;;;;;;;;;;5045604;28;20043;-82
2022/03/19 11:57:50;;;;;;;5.75;1.95;;;;;;;;;;5045245;28;20186;-80
2022/03/19 12:00:18;;;;;;;4.35;1.77;;;;;;;;;;5053526;28;20041;-82
2022/03/19 12:03:03;;;;;;;8.35;2.22;;;;;;;;;;5050495;28;20393;-81
2022/03/19 12:05:29;;;;;;;4.07;1.95;;;;;;;;;;5053046;28;20060;-81
2022/03/19 12:07:57;;;;;;;7.35;2.58;;;;;;;;;;5049278;28;20029;-80
2022/03/19 12:10:31;;;;;;;5.72;2.13;;;;;;;;;;5046885;28;20039;-80
2022/03/19 12:12:58;;;;;;;5.07;1.33;;;;;;;;;;5051689;28;20043;-81
2022/03/19 12:15:33;;;;;;;8.20;1.92;;;;;;;;;;5054474;28;20032;-82
2022/03/19 12:18:18;;;;;;;3.95;1.63;;;;;;;;;;5053724;28;20032;-81
2022/03/19 12:20:44;;;;;;;4.72;2.00;;;;;;;;;;5055662;28;20037;-82
2022/03/19 12:23:12;;;;;;;8.77;2.90;;;;;;;;;;5055438;28;20040;-83
2022/03/19 12:25:42;;;;;;;5.60;1.65;;;;;;;;;;5048772;28;20030;-82
2022/03/19 12:28:08;;;;;;;5.43;2.17;;;;;;;;;;5049361;28;20093;-84
2022/03/19 12:30:36;;;;;;;4.78;1.85;;;;;;;;;;5055131;28;20057;-85
2022/03/19 12:33:02;;;;;;;4.47;1.90;;;;;;;;;;5062710;28;20028;-82
2022/03/19 12:35:30;;;;;;;7.85;3.00;;;;;;;;;;5056551;28;20592;-82
2022/03/19 12:37:57;;;;;;;3.42;1.67;;;;;;;;;;5040372;28;20036;-82
2022/03/19 12:40:27;;;;;;;4.57;2.00;;;;;;;;;;5054631;28;20030;-82
2022/03/19 12:42:54;;;;;;;6.65;1.92;;;;;;;;;;5053890;28;20033;-84
2022/03/19 12:45:35;;;;;;;3.28;1.20;;;;;;;;;;5055366;28;20040;-83
2022/03/19 12:48:01;;;;;;;3.92;1.40;;;;;;;;;;5054869;28;20037;-82
2022/03/19 12:50:27;;;;;;;3.45;1.10;;;;;;;;;;5051722;28;20033;-82
2022/03/19 12:52:53;;;;;;;3.22;1.02;;;;;;;;;;5050192;28;20083;-81
2022/03/19 12:55:20;;;;;;;6.47;1.48;;;;;;;;;;5060298;28;20021;-83
2022/03/19 12:57:59;;;;;;;4.70;1.58;;;;;;;;;;5057943;28;20041;-86
2022/03/19 13:00:26;;;;;;;3.53;1.90;;;;;;;;;;5063110;28;20021;-84
2022/03/19 13:02:53;;;;;;;3.17;1.30;;;;;;;;;;5062220;28;20086;-83
2022/03/19 13:05:19;;;;;;;3.78;1.20;;;;;;;;;;5054882;28;20059;-84
2022/03/19 13:08:20;;;;;;;4.47;1.75;;;;;;;;;;5052645;28;20151;-83
2022/03/19 13:10:46;;;;;;;3.97;1.17;;;;;;;;;;4990461;28;20042;-80
2022/03/19 13:13:13;;;;;;;5.65;1.50;;;;;;;;;;5035722;28;20036;-82
2022/03/19 13:15:48;;;;;;;2.38;0.98;;;;;;;;;;5049072;28;20029;-85
2022/03/19 13:18:26;;;;;;;4.78;1.00;;;;;;;;;;5054699;28;20107;-81
2022/03/19 13:21:18;;;;;;;2.22;1.08;;;;;;;;;;5054900;28;20029;-82
2022/03/19 13:23:44;;;;;;;5.13;0.90;;;;;;;;;;5055278;28;20095;-82
2022/03/19 13:26:10;;;;;;;72.13;20.52;;;;;;;;;;5057562;28;20041;-81
2022/03/19 13:28:37;;;;;;;14.15;5.18;;;;;;;;;;5048720;28;20031;-83
2022/03/19 13:31:03;;;;;;;5.78;2.70;;;;;;;;;;5053057;28;20021;-81
2022/03/19 13:33:30;;;;;;;3.08;0.80;;;;;;;;;;5042741;28;20100;-80
2022/03/19 13:35:56;;;;;;;3.35;0.90;;;;;;;;;;5050827;28;20033;-80
2022/03/19 13:38:23;;;;;;;9.65;2.22;;;;;;;;;;5050901;28;20087;-80
2022/03/19 13:40:52;;;;;;;4.20;1.30;;;;;;;;;;5053067;28;20017;-80
2022/03/19 13:43:19;;;;;;;4.97;1.15;;;;;;;;;;5053976;28;20040;-80
2022/03/19 13:45:45;;;;;;;2.10;0.73;;;;;;;;;;5059092;28;20029;-80
2022/03/19 13:48:11;;;;;;;0.88;0.40;;;;;;;;;;5059575;28;20025;-82
2022/03/19 13:50:38;;;;;;;1.65;0.80;;;;;;;;;;5048138;28;20118;-81
2022/03/19 13:53:07;;;;;;;1.27;0.60;;;;;;;;;;5056151;28;20055;-80
2022/03/19 13:55:37;;;;;;;3.65;1.10;;;;;;;;;;5055375;28;20025;-81
2022/03/19 13:58:08;;;;;;;2.85;0.73;;;;;;;;;;5055258;28;20087;-80
2022/03/19 14:00:39;;;;;;;0.90;0.68;;;;;;;;;;5055913;28;20059;-81
2022/03/19 14:03:09;;;;;;;1.88;0.60;;;10.90;64.70;;;;;;5060566;28;20132;-80
2022/03/19 14:05:37;;;;;;;1.67;0.85;;;10.60;64.10;;;;;;5059529;28;20039;-79
2022/03/19 14:08:05;;;;;;;1.48;0.65;;;;;;;;;;5051850;28;20176;-80
2022/03/19 14:10:32;;;;;;;1.80;0.77;;;;;;;;;;5058938;28;20052;-80
2022/03/19 14:13:03;;;;;;;1.38;0.77;;;;;;;;;;5054788;28;20017;-80
2022/03/19 14:15:35;;;;;;;2.80;1.13;;;;;;;;;;5057886;28;22261;-80
2022/03/19 14:18:01;;;;;;;2.30;0.70;;;;;;;;;;5058689;28;21177;-81
2022/03/19 14:20:28;;;;;;;3.33;0.73;;;;;;;;;;5054278;28;20128;-81
2022/03/19 14:22:54;;;;;;;2.20;0.82;;;;;;;;;;5054216;28;20036;-80
2022/03/19 14:25:20;;;;;;;7.97;1.30;;;;;;;;;;5052342;28;20025;-79
2022/03/19 14:27:48;;;;;;;12.68;2.08;;;;;;;;;;5052645;28;20025;-80
2022/03/19 14:30:14;;;;;;;6.72;1.80;;;;;;;;;;5059564;28;20110;-79
2022/03/19 14:32:40;;;;;;;2.45;1.75;;;;;;;;;;5059067;28;20055;-79
2022/03/19 14:35:07;;;;;;;3.15;1.42;;;;;;;;;;5057459;28;20064;-79
2022/03/19 14:37:33;;;;;;;6.63;1.30;;;;;;;;;;5051418;28;20029;-80
2022/03/19 14:39:59;;;;;;;4.47;1.60;;;;;;;;;;5055419;28;20037;-79
2022/03/19 14:42:25;;;;;;;3.13;1.98;;;;;;;;;;5040658;28;20090;-79
2022/03/19 14:44:53;;;;;;;5.43;2.17;;;;;;;;;;5051239;28;20033;-79